Terminal Aerodrome Forecast
Issued by NWS Austin/San Antonio, TX

Home | Current Version | Previous Version | Text Only | Print | Product List | Glossary On
Versions: 1 2 3 4 5 6 7 8 9 10 11 12 13 14 15 16 17 18 19 20 21 22 23 24 25 26 27 28 29 30 31 32 33 34 35 36 37 38 39 40 41
000
FTUS44 KEWX 251852 AAA
TAFAUS
TAF AMD
KAUS 251852Z 2519/2624 03008KT P6SM VCTS BKN040CB
     FM252100 03008KT P6SM BKN050
     FM260200 VRB03KT P6SM BKN250
     FM260900 35002KT 1SM BR BKN004
     FM261600 04008KT P6SM SCT250=

USA.gov is the U.S. government's official web portal to all federal, state and local government web resources and services.